sensor_id;sensor_type;location;lat;lon;timestamp;pressure;altitude;pressure_sealevel;temperature;humidity
71109;BME280;59614;51.012;-1.648;2022-09-09T00:00:24;99387.41;;;13.50;100.00
71109;BME280;59614;51.012;-1.648;2022-09-09T00:03:12;99386.69;;;13.47;100.00
71109;BME280;59614;51.012;-1.648;2022-09-09T00:09:13;99390.13;;;13.49;100.00
71109;BME280;59614;51.012;-1.648;2022-09-09T00:11:46;99376.78;;;13.50;100.00
71109;BME280;59614;51.012;-1.648;2022-09-09T00:14:18;99381.09;;;13.53;100.00
71109;BME280;59614;51.012;-1.648;2022-09-09T00:16:53;99377.66;;;13.51;100.00
71109;BME280;59614;51.012;-1.648;2022-09-09T00:19:35;99378.59;;;13.50;100.00
71109;BME280;59614;51.012;-1.648;2022-09-09T00:22:17;99377.66;;;13.51;100.00
71109;BME280;59614;51.012;-1.648;2022-09-09T00:24:46;99382.81;;;13.54;100.00
71109;BME280;59614;51.012;-1.648;2022-09-09T00:32:48;99370.69;;;13.48;100.00
71109;BME280;59614;51.012;-1.648;2022-09-09T00:35:37;99378.50;;;13.51;100.00
71109;BME280;59614;51.012;-1.648;2022-09-09T00:38:14;99381.16;;;13.51;100.00
71109;BME280;59614;51.012;-1.648;2022-09-09T00:43:31;99375.72;;;13.54;100.00
71109;BME280;59614;51.012;-1.648;2022-09-09T00:46:20;99374.06;;;13.52;100.00
71109;BME280;59614;51.012;-1.648;2022-09-09T00:57:14;99388.28;;;13.51;100.00
71109;BME280;59614;51.012;-1.648;2022-09-09T00:59:51;99392.47;;;13.55;100.00
71109;BME280;59614;51.012;-1.648;2022-09-09T01:02:33;99391.78;;;13.51;100.00
71109;BME280;59614;51.012;-1.648;2022-09-09T01:06:02;99391.56;;;13.56;100.00
71109;BME280;59614;51.012;-1.648;2022-09-09T01:08:06;99396.84;;;13.56;100.00
71109;BME280;59614;51.012;-1.648;2022-09-09T01:10:52;99400.44;;;13.55;100.00
71109;BME280;59614;51.012;-1.648;2022-09-09T01:13:25;99400.38;;;13.56;100.00
71109;BME280;59614;51.012;-1.648;2022-09-09T01:15:53;99399.25;;;13.62;100.00
71109;BME280;59614;51.012;-1.648;2022-09-09T01:18:27;99403.47;;;13.66;100.00
71109;BME280;59614;51.012;-1.648;2022-09-09T01:21:18;99408.91;;;13.63;100.00
71109;BME280;59614;51.012;-1.648;2022-09-09T01:26:35;99400.22;;;13.59;100.00
71109;BME280;59614;51.012;-1.648;2022-09-09T01:29:02;99411.50;;;13.65;100.00
71109;BME280;59614;51.012;-1.648;2022-09-09T01:34:00;99412.34;;;13.65;100.00
71109;BME280;59614;51.012;-1.648;2022-09-09T01:39:09;99417.38;;;13.71;100.00
71109;BME280;59614;51.012;-1.648;2022-09-09T01:41:35;99420.97;;;13.70;100.00
71109;BME280;59614;51.012;-1.648;2022-09-09T01:44:02;99413.94;;;13.69;100.00
71109;BME280;59614;51.012;-1.648;2022-09-09T01:46:28;99421.81;;;13.71;100.00
71109;BME280;59614;51.012;-1.648;2022-09-09T01:48:54;99420.28;;;13.65;100.00
71109;BME280;59614;51.012;-1.648;2022-09-09T01:51:21;99426.41;;;13.67;100.00
71109;BME280;59614;51.012;-1.648;2022-09-09T01:53:47;99437.81;;;13.69;100.00
71109;BME280;59614;51.012;-1.648;2022-09-09T01:56:26;99432.50;;;13.69;100.00
71109;BME280;59614;51.012;-1.648;2022-09-09T01:59:22;99433.44;;;13.68;100.00
71109;BME280;59614;51.012;-1.648;2022-09-09T02:04:50;99448.31;;;13.71;100.00
71109;BME280;59614;51.012;-1.648;2022-09-09T02:09:56;99443.91;;;13.71;100.00
71109;BME280;59614;51.012;-1.648;2022-09-09T02:12:24;99439.66;;;13.67;100.00
71109;BME280;59614;51.012;-1.648;2022-09-09T02:14:55;99449.03;;;13.74;100.00
71109;BME280;59614;51.012;-1.648;2022-09-09T02:17:27;99457.09;;;13.73;100.00
71109;BME280;59614;51.012;-1.648;2022-09-09T02:20:26;99456.22;;;13.72;100.00
71109;BME280;59614;51.012;-1.648;2022-09-09T02:22:54;99452.91;;;13.67;100.00
71109;BME280;59614;51.012;-1.648;2022-09-09T02:25:22;99451.53;;;13.58;100.00
71109;BME280;59614;51.012;-1.648;2022-09-09T02:27:50;99443.72;;;13.55;100.00
71109;BME280;59614;51.012;-1.648;2022-09-09T02:30:18;99459.75;;;13.52;100.00
71109;BME280;59614;51.012;-1.648;2022-09-09T02:32:45;99457.25;;;13.49;100.00
71109;BME280;59614;51.012;-1.648;2022-09-09T02:35:17;99456.44;;;13.47;100.00
71109;BME280;59614;51.012;-1.648;2022-09-09T02:37:44;99458.31;;;13.45;100.00
71109;BME280;59614;51.012;-1.648;2022-09-09T02:40:14;99462.09;;;13.39;100.00
71109;BME280;59614;51.012;-1.648;2022-09-09T02:42:46;99464.84;;;13.36;100.00
71109;BME280;59614;51.012;-1.648;2022-09-09T02:45:15;99463.25;;;13.32;100.00
71109;BME280;59614;51.012;-1.648;2022-09-09T02:48:26;99474.53;;;13.37;100.00
71109;BME280;59614;51.012;-1.648;2022-09-09T02:51:08;99464.97;;;13.33;100.00
71109;BME280;59614;51.012;-1.648;2022-09-09T02:53:46;99473.72;;;13.35;100.00
71109;BME280;59614;51.012;-1.648;2022-09-09T02:56:17;99482.59;;;13.34;100.00
71109;BME280;59614;51.012;-1.648;2022-09-09T02:58:44;99478.34;;;13.30;100.00
71109;BME280;59614;51.012;-1.648;2022-09-09T03:01:11;99472.41;;;13.25;100.00
71109;BME280;59614;51.012;-1.648;2022-09-09T03:03:37;99494.53;;;13.24;100.00
71109;BME280;59614;51.012;-1.648;2022-09-09T03:06:03;99489.16;;;13.25;100.00
71109;BME280;59614;51.012;-1.648;2022-09-09T03:08:28;99486.50;;;13.25;100.00
71109;BME280;59614;51.012;-1.648;2022-09-09T03:10:54;99487.28;;;13.27;100.00
71109;BME280;59614;51.012;-1.648;2022-09-09T03:13:20;99483.03;;;13.23;100.00
71109;BME280;59614;51.012;-1.648;2022-09-09T03:15:47;99486.56;;;13.24;100.00
71109;BME280;59614;51.012;-1.648;2022-09-09T03:18:13;99481.41;;;13.21;100.00
71109;BME280;59614;51.012;-1.648;2022-09-09T03:20:38;99489.28;;;13.22;100.00
71109;BME280;59614;51.012;-1.648;2022-09-09T03:23:04;99483.84;;;13.25;100.00
71109;BME280;59614;51.012;-1.648;2022-09-09T03:25:29;99483.78;;;13.27;100.00
71109;BME280;59614;51.012;-1.648;2022-09-09T03:27:55;99483.78;;;13.27;100.00
71109;BME280;59614;51.012;-1.648;2022-09-09T03:30:26;99488.19;;;13.28;100.00
71109;BME280;59614;51.012;-1.648;2022-09-09T03:32:51;99496.13;;;13.28;100.00
71109;BME280;59614;51.012;-1.648;2022-09-09T03:35:17;99496.13;;;13.28;100.00
71109;BME280;59614;51.012;-1.648;2022-09-09T03:37:43;99489.16;;;13.25;100.00
71109;BME280;59614;51.012;-1.648;2022-09-09T03:40:09;99494.44;;;13.25;100.00
71109;BME280;59614;51.012;-1.648;2022-09-09T03:42:36;99498.91;;;13.25;100.00
71109;BME280;59614;51.012;-1.648;2022-09-09T03:45:06;99497.81;;;13.29;100.00
71109;BME280;59614;51.012;-1.648;2022-09-09T03:47:32;99499.69;;;13.27;100.00
71109;BME280;59614;51.012;-1.648;2022-09-09T03:49:58;99517.31;;;13.28;100.00
71109;BME280;59614;51.012;-1.648;2022-09-09T03:52:23;99512.78;;;13.30;100.00
71109;BME280;59614;51.012;-1.648;2022-09-09T03:54:51;99512.75;;;13.32;100.00
71109;BME280;59614;51.012;-1.648;2022-09-09T03:57:18;99509.38;;;13.28;100.00
71109;BME280;59614;51.012;-1.648;2022-09-09T03:59:44;99509.38;;;13.28;100.00
71109;BME280;59614;51.012;-1.648;2022-09-09T04:02:09;99518.25;;;13.27;100.00
71109;BME280;59614;51.012;-1.648;2022-09-09T04:04:35;99505.91;;;13.26;100.00
71109;BME280;59614;51.012;-1.648;2022-09-09T04:07:00;99516.66;;;13.23;100.00
71109;BME280;59614;51.012;-1.648;2022-09-09T04:09:26;99516.66;;;13.23;100.00
71109;BME280;59614;51.012;-1.648;2022-09-09T04:11:51;99524.59;;;13.23;100.00
71109;BME280;59614;51.012;-1.648;2022-09-09T04:14:19;99523.66;;;13.24;100.00
71109;BME280;59614;51.012;-1.648;2022-09-09T04:16:44;99525.50;;;13.22;100.00
71109;BME280;59614;51.012;-1.648;2022-09-09T04:19:10;99517.56;;;13.22;100.00
71109;BME280;59614;51.012;-1.648;2022-09-09T04:21:39;99528.25;;;13.20;100.00
71109;BME280;59614;51.012;-1.648;2022-09-09T04:24:05;99522.88;;;13.22;100.00
71109;BME280;59614;51.012;-1.648;2022-09-09T04:26:31;99522.94;;;13.20;100.00
71109;BME280;59614;51.012;-1.648;2022-09-09T04:28:56;99525.50;;;13.22;100.00
71109;BME280;59614;51.012;-1.648;2022-09-09T04:31:22;99523.13;;;13.16;100.00
71109;BME280;59614;51.012;-1.648;2022-09-09T04:33:49;99529.97;;;13.21;100.00
71109;BME280;59614;51.012;-1.648;2022-09-09T04:36:15;99533.53;;;13.20;100.00
71109;BME280;59614;51.012;-1.648;2022-09-09T04:38:41;99538.88;;;13.19;100.00
71109;BME280;59614;51.012;-1.648;2022-09-09T04:41:07;99540.81;;;13.15;100.00
71109;BME280;59614;51.012;-1.648;2022-09-09T04:43:33;99543.25;;;13.20;100.00
71109;BME280;59614;51.012;-1.648;2022-09-09T04:45:59;99544.13;;;13.20;100.00
71109;BME280;59614;51.012;-1.648;2022-09-09T04:48:25;99552.13;;;13.19;100.00
71109;BME280;59614;51.012;-1.648;2022-09-09T04:51:02;99548.63;;;13.18;100.00
71109;BME280;59614;51.012;-1.648;2022-09-09T04:53:30;99553.06;;;13.18;100.00
71109;BME280;59614;51.012;-1.648;2022-09-09T04:58:32;99559.03;;;13.23;100.00
71109;BME280;59614;51.012;-1.648;2022-09-09T05:03:36;99568.72;;;13.24;100.00
71109;BME280;59614;51.012;-1.648;2022-09-09T05:06:07;99573.09;;;13.25;100.00
71109;BME280;59614;51.012;-1.648;2022-09-09T05:08:34;99572.97;;;13.28;100.00
71109;BME280;59614;51.012;-1.648;2022-09-09T05:10:59;99564.94;;;13.29;100.00
71109;BME280;59614;51.012;-1.648;2022-09-09T05:13:26;99570.25;;;13.29;100.00
71109;BME280;59614;51.012;-1.648;2022-09-09T05:15:54;99582.50;;;13.32;100.00
71109;BME280;59614;51.012;-1.648;2022-09-09T05:18:20;99577.16;;;13.34;100.00
71109;BME280;59614;51.012;-1.648;2022-09-09T05:20:48;99588.59;;;13.34;100.00
71109;BME280;59614;51.012;-1.648;2022-09-09T05:23:13;99586.88;;;13.33;100.00
71109;BME280;59614;51.012;-1.648;2022-09-09T05:25:39;99593.78;;;13.37;100.00
71109;BME280;59614;51.012;-1.648;2022-09-09T05:28:06;99594.63;;;13.39;100.00
71109;BME280;59614;51.012;-1.648;2022-09-09T05:30:32;99597.28;;;13.39;100.00
71109;BME280;59614;51.012;-1.648;2022-09-09T05:32:59;99599.94;;;13.39;100.00
71109;BME280;59614;51.012;-1.648;2022-09-09T05:35:24;99596.38;;;13.39;100.00
71109;BME280;59614;51.012;-1.648;2022-09-09T05:37:49;99595.47;;;13.40;100.00
71109;BME280;59614;51.012;-1.648;2022-09-09T05:40:15;99599.94;;;13.39;100.00
71109;BME280;59614;51.012;-1.648;2022-09-09T05:42:41;99603.50;;;13.37;100.00
71109;BME280;59614;51.012;-1.648;2022-09-09T05:45:08;99599.09;;;13.37;100.00
71109;BME280;59614;51.012;-1.648;2022-09-09T05:47:34;99600.06;;;13.35;100.00
71109;BME280;59614;51.012;-1.648;2022-09-09T05:50:00;99607.97;;;13.36;100.00
71109;BME280;59614;51.012;-1.648;2022-09-09T05:52:26;99607.97;;;13.36;100.00
71109;BME280;59614;51.012;-1.648;2022-09-09T05:54:52;99605.44;;;13.33;100.00
71109;BME280;59614;51.012;-1.648;2022-09-09T05:57:18;99604.50;;;13.34;100.00
71109;BME280;59614;51.012;-1.648;2022-09-09T05:59:44;99601.06;;;13.32;100.00
71109;BME280;59614;51.012;-1.648;2022-09-09T06:02:10;99608.16;;;13.32;100.00
71109;BME280;59614;51.012;-1.648;2022-09-09T06:04:35;99605.50;;;13.32;100.00
71109;BME280;59614;51.012;-1.648;2022-09-09T06:07:01;99610.91;;;13.28;100.00
71109;BME280;59614;51.012;-1.648;2022-09-09T06:09:26;99611.91;;;13.26;100.00
71109;BME280;59614;51.012;-1.648;2022-09-09T06:11:52;99614.75;;;13.21;100.00
71109;BME280;59614;51.012;-1.648;2022-09-09T06:14:17;99622.91;;;13.17;100.00
71109;BME280;59614;51.012;-1.648;2022-09-09T06:16:46;99632.72;;;13.13;100.00
71109;BME280;59614;51.012;-1.648;2022-09-09T06:19:11;99631.88;;;13.12;100.00
71109;BME280;59614;51.012;-1.648;2022-09-09T06:21:38;99637.28;;;13.09;100.00
71109;BME280;59614;51.012;-1.648;2022-09-09T06:24:04;99646.16;;;13.08;100.00
71109;BME280;59614;51.012;-1.648;2022-09-09T06:26:48;99642.47;;;13.12;100.00
71109;BME280;59614;51.012;-1.648;2022-09-09T06:29:13;99640.25;;;13.24;100.00
71109;BME280;59614;51.012;-1.648;2022-09-09T06:31:39;99636.69;;;13.47;100.00
71109;BME280;59614;51.012;-1.648;2022-09-09T06:34:06;99648.28;;;13.67;100.00
71109;BME280;59614;51.012;-1.648;2022-09-09T06:36:34;99646.50;;;13.88;100.00
71109;BME280;59614;51.012;-1.648;2022-09-09T06:38:59;99644.97;;;14.03;100.00
71109;BME280;59614;51.012;-1.648;2022-09-09T06:41:28;99664.13;;;14.10;100.00
71109;BME280;59614;51.012;-1.648;2022-09-09T06:43:54;99661.09;;;14.19;100.00
71109;BME280;59614;51.012;-1.648;2022-09-09T06:46:27;99667.66;;;14.31;100.00
71109;BME280;59614;51.012;-1.648;2022-09-09T06:48:54;99675.69;;;14.50;100.00
71109;BME280;59614;51.012;-1.648;2022-09-09T06:51:29;99672.63;;;14.39;100.00
71109;BME280;59614;51.012;-1.648;2022-09-09T06:53:57;99678.34;;;14.29;100.00
71109;BME280;59614;51.012;-1.648;2022-09-09T06:56:34;99675.44;;;13.94;100.00
71109;BME280;59614;51.012;-1.648;2022-09-09T06:59:04;99675.66;;;13.67;100.00
71109;BME280;59614;51.012;-1.648;2022-09-09T07:01:35;99678.84;;;13.75;100.00
71109;BME280;59614;51.012;-1.648;2022-09-09T07:04:01;99692.19;;;14.15;100.00
71109;BME280;59614;51.012;-1.648;2022-09-09T07:06:31;99686.63;;;14.42;100.00
71109;BME280;59614;51.012;-1.648;2022-09-09T07:08:59;99679.34;;;14.66;100.00
71109;BME280;59614;51.012;-1.648;2022-09-09T07:11:31;99688.94;;;14.71;100.00
71109;BME280;59614;51.012;-1.648;2022-09-09T07:13:58;99684.06;;;14.60;100.00
71109;BME280;59614;51.012;-1.648;2022-09-09T07:16:24;99688.81;;;14.32;100.00
71109;BME280;59614;51.012;-1.648;2022-09-09T07:18:51;99702.41;;;14.25;100.00
71109;BME280;59614;51.012;-1.648;2022-09-09T07:21:18;99697.22;;;14.63;100.00
71109;BME280;59614;51.012;-1.648;2022-09-09T07:23:44;99701.16;;;14.94;100.00
71109;BME280;59614;51.012;-1.648;2022-09-09T07:26:12;99699.56;;;15.09;100.00
71109;BME280;59614;51.012;-1.648;2022-09-09T07:28:39;99704.75;;;15.31;100.00
71109;BME280;59614;51.012;-1.648;2022-09-09T07:31:05;99708.94;;;15.54;100.00
71109;BME280;59614;51.012;-1.648;2022-09-09T07:33:32;99712.25;;;15.59;100.00
71109;BME280;59614;51.012;-1.648;2022-09-09T07:36:08;99724.66;;;15.78;100.00
71109;BME280;59614;51.012;-1.648;2022-09-09T07:38:42;99725.56;;;15.59;99.54
71109;BME280;59614;51.012;-1.648;2022-09-09T07:41:10;99721.81;;;15.64;98.85
71109;BME280;59614;51.012;-1.648;2022-09-09T07:43:39;99724.81;;;15.75;99.15
71109;BME280;59614;51.012;-1.648;2022-09-09T07:46:05;99733.22;;;15.85;98.34
71109;BME280;59614;51.012;-1.648;2022-09-09T07:48:31;99728.47;;;15.92;97.97
71109;BME280;59614;51.012;-1.648;2022-09-09T07:51:09;99736.06;;;16.17;99.35
71109;BME280;59614;51.012;-1.648;2022-09-09T07:53:37;99735.50;;;15.93;98.70
71109;BME280;59614;51.012;-1.648;2022-09-09T07:56:08;99738.81;;;16.33;97.51
71109;BME280;59614;51.012;-1.648;2022-09-09T07:58:38;99736.00;;;16.54;98.40
71109;BME280;59614;51.012;-1.648;2022-09-09T08:01:13;99730.47;;;16.74;98.45
71109;BME280;59614;51.012;-1.648;2022-09-09T08:03:39;99737.31;;;16.45;97.47
71109;BME280;59614;51.012;-1.648;2022-09-09T08:06:06;99737.25;;;16.11;99.82
71109;BME280;59614;51.012;-1.648;2022-09-09T08:08:34;99739.34;;;15.68;96.65
71109;BME280;59614;51.012;-1.648;2022-09-09T08:11:08;99738.06;;;15.57;100.00
71109;BME280;59614;51.012;-1.648;2022-09-09T08:13:35;99743.38;;;15.77;99.28
71109;BME280;59614;51.012;-1.648;2022-09-09T08:16:18;99749.38;;;15.99;97.89
71109;BME280;59614;51.012;-1.648;2022-09-09T08:18:47;99742.28;;;16.17;96.59
71109;BME280;59614;51.012;-1.648;2022-09-09T08:21:15;99743.75;;;16.23;97.39
71109;BME280;59614;51.012;-1.648;2022-09-09T08:23:44;99743.81;;;16.21;95.23
71109;BME280;59614;51.012;-1.648;2022-09-09T08:26:17;99751.91;;;16.20;92.90
71109;BME280;59614;51.012;-1.648;2022-09-09T08:28:48;99755.03;;;16.28;95.14
71109;BME280;59614;51.012;-1.648;2022-09-09T08:33:43;99756.44;;;16.35;94.04
71109;BME280;59614;51.012;-1.648;2022-09-09T08:36:13;99754.19;;;16.28;94.92
71109;BME280;59614;51.012;-1.648;2022-09-09T08:38:41;99754.63;;;16.36;94.78
71109;BME280;59614;51.012;-1.648;2022-09-09T08:43:50;99758.72;;;16.43;93.51
71109;BME280;59614;51.012;-1.648;2022-09-09T08:46:55;99753.06;;;16.49;95.99
71109;BME280;59614;51.012;-1.648;2022-09-09T08:51:48;99762.59;;;16.71;92.26
71109;BME280;59614;51.012;-1.648;2022-09-09T08:54:14;99759.78;;;17.08;90.08
71109;BME280;59614;51.012;-1.648;2022-09-09T08:56:40;99756.97;;;17.11;92.90
71109;BME280;59614;51.012;-1.648;2022-09-09T08:59:09;99761.00;;;17.02;88.86
71109;BME280;59614;51.012;-1.648;2022-09-09T09:04:58;99767.88;;;17.06;87.90
71109;BME280;59614;51.012;-1.648;2022-09-09T09:07:35;99773.38;;;17.03;90.70
71109;BME280;59614;51.012;-1.648;2022-09-09T09:12:41;99790.03;;;16.56;91.98
71109;BME280;59614;51.012;-1.648;2022-09-09T09:15:16;99791.69;;;16.41;92.46
71109;BME280;59614;51.012;-1.648;2022-09-09T09:17:43;99797.50;;;16.49;92.05
71109;BME280;59614;51.012;-1.648;2022-09-09T09:20:13;99803.59;;;16.51;88.28
71109;BME280;59614;51.012;-1.648;2022-09-09T09:22:47;99801.34;;;16.43;90.07
71109;BME280;59614;51.012;-1.648;2022-09-09T09:30:55;99814.16;;;16.70;95.67
71109;BME280;59614;51.012;-1.648;2022-09-09T09:33:43;99818.38;;;16.92;93.73
71109;BME280;59614;51.012;-1.648;2022-09-09T09:36:12;99812.63;;;16.66;94.44
71109;BME280;59614;51.012;-1.648;2022-09-09T09:38:52;99819.63;;;16.67;95.13
71109;BME280;59614;51.012;-1.648;2022-09-09T09:41:38;99826.53;;;16.71;94.03
71109;BME280;59614;51.012;-1.648;2022-09-09T09:44:18;99825.53;;;16.74;94.03
71109;BME280;59614;51.012;-1.648;2022-09-09T09:46:46;99844.75;;;16.98;93.46
71109;BME280;59614;51.012;-1.648;2022-09-09T09:49:12;99840.03;;;17.03;93.16
71109;BME280;59614;51.012;-1.648;2022-09-09T09:51:39;99841.84;;;17.03;95.89
71109;BME280;59614;51.012;-1.648;2022-09-09T09:54:16;99839.97;;;17.05;90.29
71109;BME280;59614;51.012;-1.648;2022-09-09T09:56:44;99847.22;;;17.19;90.93
71109;BME280;59614;51.012;-1.648;2022-09-09T09:59:39;99844.19;;;17.42;89.27
71109;BME280;59614;51.012;-1.648;2022-09-09T10:02:21;99843.00;;;17.48;87.12
71109;BME280;59614;51.012;-1.648;2022-09-09T10:05:04;99852.88;;;17.46;86.64
71109;BME280;59614;51.012;-1.648;2022-09-09T10:07:29;99854.38;;;17.34;87.95
71109;BME280;59614;51.012;-1.648;2022-09-09T10:09:57;99865.25;;;17.31;88.12
71109;BME280;59614;51.012;-1.648;2022-09-09T10:23:21;99865.25;;;17.13;90.83
71109;BME280;59614;51.012;-1.648;2022-09-09T10:34:35;99871.97;;;17.54;90.88
71109;BME280;59614;51.012;-1.648;2022-09-09T10:37:11;99872.00;;;17.70;89.64
71109;BME280;59614;51.012;-1.648;2022-09-09T10:39:40;99869.00;;;17.77;91.65
71109;BME280;59614;51.012;-1.648;2022-09-09T10:42:16;99889.75;;;17.22;91.48
71109;BME280;59614;51.012;-1.648;2022-09-09T10:47:59;99894.03;;;16.89;94.47
71109;BME280;59614;51.012;-1.648;2022-09-09T10:50:42;99889.66;;;17.06;94.81
71109;BME280;59614;51.012;-1.648;2022-09-09T10:56:16;99895.44;;;17.81;94.06
71109;BME280;59614;51.012;-1.648;2022-09-09T11:01:29;99890.72;;;18.50;90.79
71109;BME280;59614;51.012;-1.648;2022-09-09T11:04:47;99892.56;;;18.64;89.25
71109;BME280;59614;51.012;-1.648;2022-09-09T11:06:48;99894.59;;;18.13;88.43
71109;BME280;59614;51.012;-1.648;2022-09-09T11:09:21;99887.34;;;17.83;88.96
71109;BME280;59614;51.012;-1.648;2022-09-09T11:11:54;99887.44;;;17.65;92.62
71109;BME280;59614;51.012;-1.648;2022-09-09T11:14:43;99898.50;;;16.89;92.62
71109;BME280;59614;51.012;-1.648;2022-09-09T11:17:15;99903.16;;;16.48;94.46
71109;BME280;59614;51.012;-1.648;2022-09-09T11:19:44;99910.03;;;16.35;98.03
71109;BME280;59614;51.012;-1.648;2022-09-09T11:40:28;99909.06;;;17.93;89.78
71109;BME280;59614;51.012;-1.648;2022-09-09T11:43:14;99918.69;;;17.79;90.48
71109;BME280;59614;51.012;-1.648;2022-09-09T11:45:42;99914.97;;;17.99;90.34
71109;BME280;59614;51.012;-1.648;2022-09-09T11:48:32;99910.16;;;17.72;87.58
71109;BME280;59614;51.012;-1.648;2022-09-09T11:54:01;99921.50;;;18.10;91.19
71109;BME280;59614;51.012;-1.648;2022-09-09T11:56:53;99918.31;;;18.35;90.75
71109;BME280;59614;51.012;-1.648;2022-09-09T11:59:29;99917.59;;;19.24;83.97
71109;BME280;59614;51.012;-1.648;2022-09-09T12:02:26;99922.69;;;18.98;88.17
71109;BME280;59614;51.012;-1.648;2022-09-09T12:10:01;99936.16;;;16.63;99.26
71109;BME280;59614;51.012;-1.648;2022-09-09T12:12:31;99938.00;;;16.63;99.35
71109;BME280;59614;51.012;-1.648;2022-09-09T12:17:30;99944.69;;;16.89;100.00
71109;BME280;59614;51.012;-1.648;2022-09-09T12:20:14;99945.75;;;16.85;99.69
71109;BME280;59614;51.012;-1.648;2022-09-09T12:33:11;99937.94;;;16.82;100.00
71109;BME280;59614;51.012;-1.648;2022-09-09T12:35:38;99949.59;;;16.79;100.00
71109;BME280;59614;51.012;-1.648;2022-09-09T12:38:05;99945.72;;;17.04;97.59
71109;BME280;59614;51.012;-1.648;2022-09-09T12:40:36;99944.63;;;17.26;98.90
71109;BME280;59614;51.012;-1.648;2022-09-09T12:43:17;99951.56;;;17.97;96.04
71109;BME280;59614;51.012;-1.648;2022-09-09T12:45:42;99951.06;;;17.73;95.12
71109;BME280;59614;51.012;-1.648;2022-09-09T12:48:10;99950.53;;;17.15;95.64
71109;BME280;59614;51.012;-1.648;2022-09-09T12:50:48;99956.75;;;16.79;97.30
71109;BME280;59614;51.012;-1.648;2022-09-09T12:53:31;99951.78;;;16.54;98.43
71109;BME280;59614;51.012;-1.648;2022-09-09T12:56:00;99952.94;;;16.29;100.00
71109;BME280;59614;51.012;-1.648;2022-09-09T12:58:28;99958.09;;;16.51;100.00
71109;BME280;59614;51.012;-1.648;2022-09-09T13:00:58;99962.09;;;17.32;100.00
71109;BME280;59614;51.012;-1.648;2022-09-09T13:03:26;99946.56;;;18.07;99.42
71109;BME280;59614;51.012;-1.648;2022-09-09T13:05:52;99943.09;;;18.53;97.25
71109;BME280;59614;51.012;-1.648;2022-09-09T13:08:19;99955.06;;;18.94;92.96
71109;BME280;59614;51.012;-1.648;2022-09-09T13:13:29;99948.75;;;19.83;90.44
71109;BME280;59614;51.012;-1.648;2022-09-09T13:16:00;99942.94;;;20.47;87.52
71109;BME280;59614;51.012;-1.648;2022-09-09T13:18:33;99943.13;;;20.72;85.95
71109;BME280;59614;51.012;-1.648;2022-09-09T13:21:00;99945.31;;;21.20;86.19
71109;BME280;59614;51.012;-1.648;2022-09-09T13:23:34;99946.00;;;20.41;85.91
71109;BME280;59614;51.012;-1.648;2022-09-09T13:26:02;99936.81;;;19.89;87.59
71109;BME280;59614;51.012;-1.648;2022-09-09T13:28:30;99945.84;;;19.28;87.33
71109;BME280;59614;51.012;-1.648;2022-09-09T13:31:04;99944.91;;;18.68;89.84
71109;BME280;59614;51.012;-1.648;2022-09-09T13:33:36;99945.00;;;18.03;90.13
71109;BME280;59614;51.012;-1.648;2022-09-09T13:36:10;99956.59;;;17.86;93.00
71109;BME280;59614;51.012;-1.648;2022-09-09T13:38:38;99956.66;;;17.51;91.35
71109;BME280;59614;51.012;-1.648;2022-09-09T13:41:08;99967.19;;;17.36;93.47
71109;BME280;59614;51.012;-1.648;2022-09-09T13:43:44;99971.63;;;17.20;94.47
71109;BME280;59614;51.012;-1.648;2022-09-09T13:46:42;99962.16;;;17.65;94.27
71109;BME280;59614;51.012;-1.648;2022-09-09T13:54:04;99966.44;;;18.81;89.18
71109;BME280;59614;51.012;-1.648;2022-09-09T13:56:31;99974.56;;;18.32;88.61
71109;BME280;59614;51.012;-1.648;2022-09-09T13:58:57;99977.44;;;17.95;88.63
71109;BME280;59614;51.012;-1.648;2022-09-09T14:01:23;99982.84;;;17.78;87.77
71109;BME280;59614;51.012;-1.648;2022-09-09T14:03:49;99973.22;;;17.57;87.65
71109;BME280;59614;51.012;-1.648;2022-09-09T14:06:14;99980.69;;;17.51;90.56
71109;BME280;59614;51.012;-1.648;2022-09-09T14:08:40;99982.13;;;17.40;91.41
71109;BME280;59614;51.012;-1.648;2022-09-09T14:11:07;99981.38;;;17.54;90.91
71109;BME280;59614;51.012;-1.648;2022-09-09T14:13:34;99989.31;;;17.56;93.55
71109;BME280;59614;51.012;-1.648;2022-09-09T14:16:02;99986.06;;;17.33;90.13
71109;BME280;59614;51.012;-1.648;2022-09-09T14:18:28;99991.06;;;17.22;91.50
71109;BME280;59614;51.012;-1.648;2022-09-09T14:20:54;99996.22;;;17.25;91.30
71109;BME280;59614;51.012;-1.648;2022-09-09T14:23:19;99999.47;;;17.14;93.69
71109;BME280;59614;51.012;-1.648;2022-09-09T14:25:47;99999.81;;;16.89;96.73
71109;BME280;59614;51.012;-1.648;2022-09-09T14:28:13;100000.41;;;16.76;98.00
71109;BME280;59614;51.012;-1.648;2022-09-09T14:30:40;99999.72;;;16.54;100.00
71109;BME280;59614;51.012;-1.648;2022-09-09T14:33:07;99995.78;;;16.43;100.00
71109;BME280;59614;51.012;-1.648;2022-09-09T14:35:33;99992.22;;;16.43;100.00
71109;BME280;59614;51.012;-1.648;2022-09-09T14:37:59;99995.69;;;16.45;100.00
71109;BME280;59614;51.012;-1.648;2022-09-09T14:40:26;99998.38;;;16.62;100.00
71109;BME280;59614;51.012;-1.648;2022-09-09T14:42:52;100001.00;;;16.64;100.00
71109;BME280;59614;51.012;-1.648;2022-09-09T14:45:17;99999.19;;;16.64;100.00
71109;BME280;59614;51.012;-1.648;2022-09-09T14:47:43;100000.06;;;16.65;100.00
71109;BME280;59614;51.012;-1.648;2022-09-09T14:50:08;100006.56;;;16.96;100.00
71109;BME280;59614;51.012;-1.648;2022-09-09T14:52:34;99999.03;;;17.04;98.19
71109;BME280;59614;51.012;-1.648;2022-09-09T14:54:59;99996.41;;;17.22;97.32
71109;BME280;59614;51.012;-1.648;2022-09-09T14:57:25;100002.34;;;17.09;95.09
71109;BME280;59614;51.012;-1.648;2022-09-09T14:59:50;99993.19;;;17.50;94.70
71109;BME280;59614;51.012;-1.648;2022-09-09T15:02:16;99990.56;;;17.66;94.29
71109;BME280;59614;51.012;-1.648;2022-09-09T15:04:41;99987.50;;;17.56;91.96
71109;BME280;59614;51.012;-1.648;2022-09-09T15:07:07;99988.44;;;18.06;93.12
71109;BME280;59614;51.012;-1.648;2022-09-09T15:09:32;99983.88;;;17.91;91.95
71109;BME280;59614;51.012;-1.648;2022-09-09T15:11:57;99982.31;;;17.71;95.96